sensor_id;sensor_type;location;lat;lon;timestamp;pressure;altitude;pressure_sealevel;temperature;humidity
76205;BME280;64986;55.672;37.628;2023-06-10T00:00:23;99903.06;;;13.20;nan
76205;BME280;64986;55.672;37.628;2023-06-10T00:02:49;99901.44;;;13.12;nan
76205;BME280;64986;55.672;37.628;2023-06-10T00:05:14;99899.22;;;13.09;nan
76205;BME280;64986;55.672;37.628;2023-06-10T00:07:41;99899.84;;;13.04;nan
76205;BME280;64986;55.672;37.628;2023-06-10T00:10:07;99896.03;;;12.94;nan
76205;BME280;64986;55.672;37.628;2023-06-10T00:12:33;99895.84;;;12.89;nan
76205;BME280;64986;55.672;37.628;2023-06-10T00:15:06;99883.50;;;12.69;nan
76205;BME280;64986;55.672;37.628;2023-06-10T00:17:31;99893.91;;;12.71;nan
76205;BME280;64986;55.672;37.628;2023-06-10T00:19:58;99901.25;;;12.62;nan
76205;BME280;64986;55.672;37.628;2023-06-10T00:22:23;99898.00;;;12.54;nan
76205;BME280;64986;55.672;37.628;2023-06-10T00:24:54;99910.59;;;12.52;nan
76205;BME280;64986;55.672;37.628;2023-06-10T00:27:20;99910.41;;;12.46;nan
76205;BME280;64986;55.672;37.628;2023-06-10T00:29:46;99908.78;;;12.39;nan
76205;BME280;64986;55.672;37.628;2023-06-10T00:32:12;99918.75;;;12.43;nan
76205;BME280;64986;55.672;37.628;2023-06-10T00:34:37;99912.88;;;12.41;nan
76205;BME280;64986;55.672;37.628;2023-06-10T00:37:03;99915.88;;;12.45;nan
76205;BME280;64986;55.672;37.628;2023-06-10T00:39:28;99912.06;;;12.41;nan
76205;BME280;64986;55.672;37.628;2023-06-10T00:41:54;99913.44;;;12.50;nan
76205;BME280;64986;55.672;37.628;2023-06-10T00:44:19;99919.53;;;12.50;nan
76205;BME280;64986;55.672;37.628;2023-06-10T00:46:45;99930.88;;;12.64;nan
76205;BME280;64986;55.672;37.628;2023-06-10T00:49:11;99936.97;;;12.71;nan
76205;BME280;64986;55.672;37.628;2023-06-10T00:51:37;99936.16;;;12.71;nan
76205;BME280;64986;55.672;37.628;2023-06-10T00:54:03;99939.41;;;12.73;nan
76205;BME280;64986;55.672;37.628;2023-06-10T00:56:30;99939.38;;;12.80;nan
76205;BME280;64986;55.672;37.628;2023-06-10T00:58:55;99932.03;;;12.88;nan
76205;BME280;64986;55.672;37.628;2023-06-10T01:01:21;99930.63;;;12.92;nan
76205;BME280;64986;55.672;37.628;2023-06-10T01:03:46;99942.09;;;13.11;nan
76205;BME280;64986;55.672;37.628;2023-06-10T01:09:33;99963.25;;;13.24;nan
76205;BME280;64986;55.672;37.628;2023-06-10T01:12:07;99959.13;;;13.35;nan
76205;BME280;64986;55.672;37.628;2023-06-10T01:14:38;99965.53;;;13.52;nan
76205;BME280;64986;55.672;37.628;2023-06-10T01:17:10;99965.88;;;13.63;nan
76205;BME280;64986;55.672;37.628;2023-06-10T01:19:36;99967.06;;;13.67;nan
76205;BME280;64986;55.672;37.628;2023-06-10T01:22:02;99955.88;;;13.71;nan
76205;BME280;64986;55.672;37.628;2023-06-10T01:24:28;99961.53;;;13.75;nan
76205;BME280;64986;55.672;37.628;2023-06-10T01:27:00;99970.22;;;13.82;nan
76205;BME280;64986;55.672;37.628;2023-06-10T01:29:49;99977.50;;;13.93;nan
76205;BME280;64986;55.672;37.628;2023-06-10T01:32:21;99979.19;;;13.81;nan
76205;BME280;64986;55.672;37.628;2023-06-10T01:34:48;99981.06;;;13.74;nan
76205;BME280;64986;55.672;37.628;2023-06-10T01:37:18;99977.63;;;13.73;nan
76205;BME280;64986;55.672;37.628;2023-06-10T01:39:46;99987.81;;;13.70;nan
76205;BME280;64986;55.672;37.628;2023-06-10T01:42:12;99984.97;;;13.71;nan
76205;BME280;64986;55.672;37.628;2023-06-10T01:44:39;99968.09;;;13.66;nan
76205;BME280;64986;55.672;37.628;2023-06-10T01:47:05;99984.72;;;13.79;nan
76205;BME280;64986;55.672;37.628;2023-06-10T01:49:30;99985.16;;;13.76;nan
76205;BME280;64986;55.672;37.628;2023-06-10T01:51:56;99987.31;;;13.86;nan
76205;BME280;64986;55.672;37.628;2023-06-10T01:54:21;99980.38;;;13.92;nan
76205;BME280;64986;55.672;37.628;2023-06-10T01:56:47;99996.28;;;13.85;nan
76205;BME280;64986;55.672;37.628;2023-06-10T01:59:12;100006.44;;;13.88;nan
76205;BME280;64986;55.672;37.628;2023-06-10T02:01:38;100005.66;;;13.81;nan
76205;BME280;64986;55.672;37.628;2023-06-10T02:04:03;100012.81;;;13.74;nan
76205;BME280;64986;55.672;37.628;2023-06-10T02:06:29;100004.56;;;13.57;nan
76205;BME280;64986;55.672;37.628;2023-06-10T02:08:55;100009.09;;;13.43;nan
76205;BME280;64986;55.672;37.628;2023-06-10T02:11:20;100008.16;;;13.38;nan
76205;BME280;64986;55.672;37.628;2023-06-10T02:13:47;100010.81;;;13.31;nan
76205;BME280;64986;55.672;37.628;2023-06-10T02:16:12;100011.84;;;13.30;nan
76205;BME280;64986;55.672;37.628;2023-06-10T02:18:39;100027.06;;;13.35;nan
76205;BME280;64986;55.672;37.628;2023-06-10T02:21:08;100023.78;;;13.39;nan
76205;BME280;64986;55.672;37.628;2023-06-10T02:23:33;100027.84;;;13.42;nan
76205;BME280;64986;55.672;37.628;2023-06-10T02:25:59;100022.97;;;13.45;nan
76205;BME280;64986;55.672;37.628;2023-06-10T02:28:25;100023.38;;;13.36;nan
76205;BME280;64986;55.672;37.628;2023-06-10T02:30:51;100032.19;;;13.23;nan
76205;BME280;64986;55.672;37.628;2023-06-10T02:33:17;100030.34;;;13.17;nan
76205;BME280;64986;55.672;37.628;2023-06-10T02:35:43;100025.06;;;13.17;nan
76205;BME280;64986;55.672;37.628;2023-06-10T02:38:08;100028.28;;;13.19;nan
76205;BME280;64986;55.672;37.628;2023-06-10T02:40:34;100029.34;;;13.11;nan
76205;BME280;64986;55.672;37.628;2023-06-10T02:42:59;100030.34;;;13.10;nan
76205;BME280;64986;55.672;37.628;2023-06-10T02:45:25;100028.28;;;13.19;nan
76205;BME280;64986;55.672;37.628;2023-06-10T02:47:50;100036.84;;;13.21;nan
76205;BME280;64986;55.672;37.628;2023-06-10T02:50:16;100030.75;;;13.27;nan
76205;BME280;64986;55.672;37.628;2023-06-10T02:52:41;100025.25;;;13.22;nan
76205;BME280;64986;55.672;37.628;2023-06-10T02:55:07;100044.53;;;13.36;nan
76205;BME280;64986;55.672;37.628;2023-06-10T02:57:33;100041.91;;;13.36;nan
76205;BME280;64986;55.672;37.628;2023-06-10T02:59:58;100029.47;;;13.36;nan
76205;BME280;64986;55.672;37.628;2023-06-10T03:02:25;100044.50;;;13.42;nan
76205;BME280;64986;55.672;37.628;2023-06-10T03:04:56;100045.53;;;13.48;nan
76205;BME280;64986;55.672;37.628;2023-06-10T03:07:21;100049.59;;;13.44;nan
76205;BME280;64986;55.672;37.628;2023-06-10T03:09:48;100042.44;;;13.51;nan
76205;BME280;64986;55.672;37.628;2023-06-10T03:12:14;100041.63;;;13.50;nan
76205;BME280;64986;55.672;37.628;2023-06-10T03:14:39;100050.13;;;13.59;nan
76205;BME280;64986;55.672;37.628;2023-06-10T03:17:05;100035.06;;;13.59;nan
76205;BME280;64986;55.672;37.628;2023-06-10T03:19:31;100052.50;;;13.74;nan
76205;BME280;64986;55.672;37.628;2023-06-10T03:22:11;100043.72;;;13.80;nan
76205;BME280;64986;55.672;37.628;2023-06-10T03:24:37;100047.06;;;13.69;nan
76205;BME280;64986;55.672;37.628;2023-06-10T03:27:10;100055.84;;;13.63;nan
76205;BME280;64986;55.672;37.628;2023-06-10T03:29:39;100045.00;;;13.71;nan
76205;BME280;64986;55.672;37.628;2023-06-10T03:32:05;100044.59;;;13.67;nan
76205;BME280;64986;55.672;37.628;2023-06-10T03:34:31;100052.13;;;13.70;nan
76205;BME280;64986;55.672;37.628;2023-06-10T03:36:57;100052.50;;;13.74;nan
76205;BME280;64986;55.672;37.628;2023-06-10T03:39:23;100051.09;;;13.78;nan
76205;BME280;64986;55.672;37.628;2023-06-10T03:41:52;100063.50;;;13.77;nan
76205;BME280;64986;55.672;37.628;2023-06-10T03:44:17;100051.31;;;13.76;nan
76205;BME280;64986;55.672;37.628;2023-06-10T03:46:43;100065.47;;;13.88;nan
76205;BME280;64986;55.672;37.628;2023-06-10T03:49:08;100060.78;;;13.91;nan
76205;BME280;64986;55.672;37.628;2023-06-10T03:51:35;100065.84;;;13.99;nan
76205;BME280;64986;55.672;37.628;2023-06-10T03:54:01;100056.94;;;13.86;nan
76205;BME280;64986;55.672;37.628;2023-06-10T03:56:27;100064.16;;;14.04;nan
76205;BME280;64986;55.672;37.628;2023-06-10T03:58:53;100059.47;;;14.06;nan
76205;BME280;64986;55.672;37.628;2023-06-10T04:01:20;100062.72;;;14.08;nan
76205;BME280;64986;55.672;37.628;2023-06-10T04:03:46;100064.91;;;14.11;nan
76205;BME280;64986;55.672;37.628;2023-06-10T04:06:14;100068.00;;;14.08;nan
76205;BME280;64986;55.672;37.628;2023-06-10T04:08:41;100068.34;;;14.19;nan
76205;BME280;64986;55.672;37.628;2023-06-10T04:11:06;100077.09;;;14.19;nan
76205;BME280;64986;55.672;37.628;2023-06-10T04:13:32;100079.97;;;14.18;nan
76205;BME280;64986;55.672;37.628;2023-06-10T04:15:57;100080.50;;;14.26;nan
76205;BME280;64986;55.672;37.628;2023-06-10T04:18:23;100074.19;;;14.27;nan
76205;BME280;64986;55.672;37.628;2023-06-10T04:20:48;100077.47;;;14.29;nan
76205;BME280;64986;55.672;37.628;2023-06-10T04:23:14;100068.44;;;14.37;nan
76205;BME280;64986;55.672;37.628;2023-06-10T04:25:39;100083.66;;;14.48;nan
76205;BME280;64986;55.672;37.628;2023-06-10T04:28:05;100078.34;;;14.48;nan
76205;BME280;64986;55.672;37.628;2023-06-10T04:30:30;100073.81;;;14.55;nan
76205;BME280;64986;55.672;37.628;2023-06-10T04:32:56;100064.88;;;14.50;nan
76205;BME280;64986;55.672;37.628;2023-06-10T04:35:22;100079.28;;;14.60;nan
76205;BME280;64986;55.672;37.628;2023-06-10T04:37:47;100080.31;;;14.59;nan
76205;BME280;64986;55.672;37.628;2023-06-10T04:40:13;100087.00;;;14.62;nan
76205;BME280;64986;55.672;37.628;2023-06-10T04:42:41;100085.34;;;14.67;nan
76205;BME280;64986;55.672;37.628;2023-06-10T04:45:07;100083.47;;;14.75;nan
76205;BME280;64986;55.672;37.628;2023-06-10T04:47:32;100082.56;;;14.81;nan
76205;BME280;64986;55.672;37.628;2023-06-10T04:50:02;100080.94;;;14.80;nan
76205;BME280;64986;55.672;37.628;2023-06-10T04:52:28;100087.81;;;14.87;nan
76205;BME280;64986;55.672;37.628;2023-06-10T04:54:54;100086.34;;;14.91;nan
76205;BME280;64986;55.672;37.628;2023-06-10T04:57:20;100088.34;;;14.96;nan
76205;BME280;64986;55.672;37.628;2023-06-10T04:59:46;100094.38;;;15.03;nan
76205;BME280;64986;55.672;37.628;2023-06-10T05:02:12;100101.63;;;15.14;nan
76205;BME280;64986;55.672;37.628;2023-06-10T05:04:38;100101.13;;;15.24;nan
76205;BME280;64986;55.672;37.628;2023-06-10T05:07:04;100103.56;;;15.25;nan
76205;BME280;64986;55.672;37.628;2023-06-10T05:09:30;100091.31;;;15.24;nan
76205;BME280;64986;55.672;37.628;2023-06-10T05:11:55;100106.13;;;15.32;nan
76205;BME280;64986;55.672;37.628;2023-06-10T05:14:21;100106.22;;;15.44;nan
76205;BME280;64986;55.672;37.628;2023-06-10T05:16:48;100107.19;;;15.49;nan
76205;BME280;64986;55.672;37.628;2023-06-10T05:19:13;100094.13;;;15.48;nan
76205;BME280;64986;55.672;37.628;2023-06-10T05:21:41;100088.81;;;15.48;nan
76205;BME280;64986;55.672;37.628;2023-06-10T05:24:07;100096.44;;;15.44;nan
76205;BME280;64986;55.672;37.628;2023-06-10T05:26:33;100088.69;;;15.43;nan
76205;BME280;64986;55.672;37.628;2023-06-10T05:29:02;100108.13;;;15.55;nan
76205;BME280;64986;55.672;37.628;2023-06-10T05:31:28;100111.16;;;15.59;nan
76205;BME280;64986;55.672;37.628;2023-06-10T05:33:53;100108.47;;;15.65;nan
76205;BME280;64986;55.672;37.628;2023-06-10T05:36:19;100115.00;;;15.63;nan
76205;BME280;64986;55.672;37.628;2023-06-10T05:38:44;100114.88;;;15.76;nan
76205;BME280;64986;55.672;37.628;2023-06-10T05:41:10;100113.91;;;15.70;nan
76205;BME280;64986;55.672;37.628;2023-06-10T05:43:35;100109.56;;;15.76;nan
76205;BME280;64986;55.672;37.628;2023-06-10T05:46:03;100110.81;;;15.73;nan
76205;BME280;64986;55.672;37.628;2023-06-10T05:48:28;100122.28;;;15.86;nan
76205;BME280;64986;55.672;37.628;2023-06-10T05:50:54;100125.59;;;15.99;nan
76205;BME280;64986;55.672;37.628;2023-06-10T05:53:19;100118.56;;;16.05;nan
76205;BME280;64986;55.672;37.628;2023-06-10T05:55:45;100106.25;;;16.11;nan
76205;BME280;64986;55.672;37.628;2023-06-10T05:58:12;100098.53;;;16.21;nan
76205;BME280;64986;55.672;37.628;2023-06-10T06:00:38;100090.75;;;16.49;nan
76205;BME280;64986;55.672;37.628;2023-06-10T06:03:08;100112.00;;;16.79;nan
76205;BME280;64986;55.672;37.628;2023-06-10T06:05:35;100115.34;;;16.98;nan
76205;BME280;64986;55.672;37.628;2023-06-10T06:08:03;100111.97;;;17.26;nan
76205;BME280;64986;55.672;37.628;2023-06-10T06:10:28;100118.44;;;17.30;nan
76205;BME280;64986;55.672;37.628;2023-06-10T06:12:54;100116.81;;;17.41;nan
76205;BME280;64986;55.672;37.628;2023-06-10T06:15:20;100117.50;;;17.36;nan
76205;BME280;64986;55.672;37.628;2023-06-10T06:17:45;100120.78;;;17.27;nan
76205;BME280;64986;55.672;37.628;2023-06-10T06:20:11;100118.00;;;17.22;nan
76205;BME280;64986;55.672;37.628;2023-06-10T06:22:37;100125.06;;;17.16;nan
76205;BME280;64986;55.672;37.628;2023-06-10T06:25:02;100130.09;;;17.53;nan
76205;BME280;64986;55.672;37.628;2023-06-10T06:27:28;100135.25;;;17.94;nan
76205;BME280;64986;55.672;37.628;2023-06-10T06:29:53;100114.97;;;17.93;nan
76205;BME280;64986;55.672;37.628;2023-06-10T06:32:19;100119.41;;;17.88;nan
76205;BME280;64986;55.672;37.628;2023-06-10T06:34:44;100122.19;;;17.81;nan
76205;BME280;64986;55.672;37.628;2023-06-10T06:37:10;100134.25;;;17.72;nan
76205;BME280;64986;55.672;37.628;2023-06-10T06:39:35;100135.91;;;18.01;nan
76205;BME280;64986;55.672;37.628;2023-06-10T06:42:01;100121.66;;;18.08;nan
76205;BME280;64986;55.672;37.628;2023-06-10T06:44:26;100142.06;;;18.02;nan
76205;BME280;64986;55.672;37.628;2023-06-10T06:46:52;100138.75;;;17.83;nan
76205;BME280;64986;55.672;37.628;2023-06-10T06:49:17;100153.13;;;18.11;nan
76205;BME280;64986;55.672;37.628;2023-06-10T06:51:43;100156.91;;;18.43;nan
76205;BME280;64986;55.672;37.628;2023-06-10T06:54:08;100146.44;;;18.37;nan
76205;BME280;64986;55.672;37.628;2023-06-10T06:56:34;100147.69;;;18.34;nan
76205;BME280;64986;55.672;37.628;2023-06-10T06:58:59;100154.50;;;18.87;nan
76205;BME280;64986;55.672;37.628;2023-06-10T07:01:25;100141.78;;;19.28;nan
76205;BME280;64986;55.672;37.628;2023-06-10T07:03:50;100131.94;;;19.72;nan
76205;BME280;64986;55.672;37.628;2023-06-10T07:06:16;100150.94;;;20.19;nan
76205;BME280;64986;55.672;37.628;2023-06-10T07:08:41;100142.97;;;20.52;nan
76205;BME280;64986;55.672;37.628;2023-06-10T07:11:07;100154.53;;;20.57;nan
76205;BME280;64986;55.672;37.628;2023-06-10T07:13:32;100154.19;;;20.81;nan
76205;BME280;64986;55.672;37.628;2023-06-10T07:15:58;100144.31;;;20.49;nan
76205;BME280;64986;55.672;37.628;2023-06-10T07:18:24;100152.75;;;20.14;nan
76205;BME280;64986;55.672;37.628;2023-06-10T07:20:49;100155.47;;;19.53;nan
76205;BME280;64986;55.672;37.628;2023-06-10T07:23:15;100146.44;;;18.82;nan
76205;BME280;64986;55.672;37.628;2023-06-10T07:25:43;100152.31;;;18.67;nan
76205;BME280;64986;55.672;37.628;2023-06-10T07:28:09;100134.03;;;18.59;nan
76205;BME280;64986;55.672;37.628;2023-06-10T07:30:34;100151.03;;;18.70;nan
76205;BME280;64986;55.672;37.628;2023-06-10T07:33:00;100157.25;;;18.75;nan
76205;BME280;64986;55.672;37.628;2023-06-10T07:35:27;100162.59;;;18.92;nan
76205;BME280;64986;55.672;37.628;2023-06-10T07:37:52;100165.16;;;19.21;nan
76205;BME280;64986;55.672;37.628;2023-06-10T07:40:18;100159.50;;;19.56;nan
76205;BME280;64986;55.672;37.628;2023-06-10T07:42:43;100165.31;;;20.13;nan
76205;BME280;64986;55.672;37.628;2023-06-10T07:45:09;100154.44;;;20.47;nan
76205;BME280;64986;55.672;37.628;2023-06-10T07:47:35;100161.31;;;20.43;nan
76205;BME280;64986;55.672;37.628;2023-06-10T07:50:00;100169.06;;;20.66;nan
76205;BME280;64986;55.672;37.628;2023-06-10T07:52:26;100166.03;;;20.58;nan
76205;BME280;64986;55.672;37.628;2023-06-10T07:54:53;100170.88;;;20.61;nan
76205;BME280;64986;55.672;37.628;2023-06-10T07:57:19;100164.44;;;20.08;nan
76205;BME280;64986;55.672;37.628;2023-06-10T07:59:44;65559.31;;;-144.76;100.00
76205;BME280;64986;55.672;37.628;2023-06-10T08:02:10;100164.44;;;20.08;nan
76205;BME280;64986;55.672;37.628;2023-06-10T08:04:36;100170.41;;;19.71;nan
76205;BME280;64986;55.672;37.628;2023-06-10T08:07:01;100179.84;;;19.79;nan
76205;BME280;64986;55.672;37.628;2023-06-10T08:09:27;100181.41;;;19.75;nan
76205;BME280;64986;55.672;37.628;2023-06-10T08:11:53;100174.38;;;19.68;nan
76205;BME280;64986;55.672;37.628;2023-06-10T08:14:19;100177.97;;;19.79;nan
76205;BME280;64986;55.672;37.628;2023-06-10T08:16:44;100179.13;;;19.83;nan
76205;BME280;64986;55.672;37.628;2023-06-10T08:19:10;100183.28;;;19.96;nan
76205;BME280;64986;55.672;37.628;2023-06-10T08:21:36;100160.28;;;19.95;nan
76205;BME280;64986;55.672;37.628;2023-06-10T08:24:03;100188.56;;;20.40;nan
76205;BME280;64986;55.672;37.628;2023-06-10T08:26:28;100184.56;;;20.64;nan
76205;BME280;64986;55.672;37.628;2023-06-10T08:28:54;100194.69;;;20.62;nan
76205;BME280;64986;55.672;37.628;2023-06-10T08:31:20;100201.81;;;20.78;nan
76205;BME280;64986;55.672;37.628;2023-06-10T08:33:46;100199.75;;;20.86;nan
76205;BME280;64986;55.672;37.628;2023-06-10T08:36:12;100196.41;;;21.05;nan
76205;BME280;64986;55.672;37.628;2023-06-10T08:38:37;100202.03;;;21.04;nan
76205;BME280;64986;55.672;37.628;2023-06-10T08:41:05;100193.47;;;21.07;nan
76205;BME280;64986;55.672;37.628;2023-06-10T08:43:40;100206.06;;;21.44;nan
76205;BME280;64986;55.672;37.628;2023-06-10T08:46:09;100193.25;;;21.14;nan
76205;BME280;64986;55.672;37.628;2023-06-10T08:48:37;100211.25;;;21.18;nan
76205;BME280;64986;55.672;37.628;2023-06-10T08:51:04;100207.09;;;21.38;nan
76205;BME280;64986;55.672;37.628;2023-06-10T08:53:33;100205.63;;;21.57;nan
76205;BME280;64986;55.672;37.628;2023-06-10T08:56:02;100202.31;;;21.08;nan
76205;BME280;64986;55.672;37.628;2023-06-10T08:58:29;100206.91;;;21.12;nan
76205;BME280;64986;55.672;37.628;2023-06-10T09:00:58;100214.69;;;20.82;nan
76205;BME280;64986;55.672;37.628;2023-06-10T09:03:25;100208.78;;;20.31;nan
76205;BME280;64986;55.672;37.628;2023-06-10T09:05:51;100208.38;;;20.17;nan
76205;BME280;64986;55.672;37.628;2023-06-10T09:08:16;100208.34;;;20.39;nan
76205;BME280;64986;55.672;37.628;2023-06-10T09:10:42;100217.94;;;20.57;nan
76205;BME280;64986;55.672;37.628;2023-06-10T09:13:08;100204.44;;;20.73;nan
76205;BME280;64986;55.672;37.628;2023-06-10T09:15:33;100212.84;;;21.19;nan
76205;BME280;64986;55.672;37.628;2023-06-10T09:17:59;100213.59;;;21.15;nan
76205;BME280;64986;55.672;37.628;2023-06-10T09:20:25;100220.63;;;21.21;nan
76205;BME280;64986;55.672;37.628;2023-06-10T09:22:51;100211.56;;;21.27;nan
76205;BME280;64986;55.672;37.628;2023-06-10T09:25:17;100212.56;;;21.53;nan
76205;BME280;64986;55.672;37.628;2023-06-10T09:27:52;100217.38;;;21.51;nan
76205;BME280;64986;55.672;37.628;2023-06-10T09:30:29;100208.25;;;21.52;nan
76205;BME280;64986;55.672;37.628;2023-06-10T09:32:56;100218.94;;;21.42;nan
76205;BME280;64986;55.672;37.628;2023-06-10T09:35:23;100214.41;;;21.15;nan
76205;BME280;64986;55.672;37.628;2023-06-10T09:37:54;100232.31;;;21.10;nan
76205;BME280;64986;55.672;37.628;2023-06-10T09:40:20;100226.75;;;21.16;nan
76205;BME280;64986;55.672;37.628;2023-06-10T09:42:45;100224.84;;;20.80;nan
76205;BME280;64986;55.672;37.628;2023-06-10T09:45:14;100225.69;;;21.17;nan
76205;BME280;64986;55.672;37.628;2023-06-10T09:47:40;65559.31;;;-144.76;100.00
76205;BME280;64986;55.672;37.628;2023-06-10T09:50:06;100225.69;;;21.17;nan
76205;BME280;64986;55.672;37.628;2023-06-10T09:52:32;100224.38;;;26.69;nan
76205;BME280;64986;55.672;37.628;2023-06-10T09:55:01;100234.78;;;26.57;nan
76205;BME280;64986;55.672;37.628;2023-06-10T09:57:31;100236.13;;;25.69;nan
76205;BME280;64986;55.672;37.628;2023-06-10T10:00:08;100232.34;;;25.17;nan
76205;BME280;64986;55.672;37.628;2023-06-10T10:02:49;100230.31;;;24.99;nan
76205;BME280;64986;55.672;37.628;2023-06-10T10:05:16;100231.34;;;26.33;nan
76205;BME280;64986;55.672;37.628;2023-06-10T10:07:43;100218.22;;;28.53;nan
76205;BME280;64986;55.672;37.628;2023-06-10T10:10:10;100228.03;;;30.35;nan
76205;BME280;64986;55.672;37.628;2023-06-10T10:12:38;100215.34;;;31.26;nan
76205;BME280;64986;55.672;37.628;2023-06-10T10:15:06;100222.81;;;32.14;nan
76205;BME280;64986;55.672;37.628;2023-06-10T10:17:34;100232.88;;;30.38;nan
76205;BME280;64986;55.672;37.628;2023-06-10T10:20:04;100218.22;;;28.53;nan
76205;BME280;64986;55.672;37.628;2023-06-10T10:22:40;100230.91;;;30.13;nan
76205;BME280;64986;55.672;37.628;2023-06-10T10:25:10;100236.44;;;31.84;nan
76205;BME280;64986;55.672;37.628;2023-06-10T10:27:44;100255.41;;;33.39;nan
76205;BME280;64986;55.672;37.628;2023-06-10T10:30:11;100228.00;;;32.27;nan
76205;BME280;64986;55.672;37.628;2023-06-10T10:32:45;100225.47;;;32.85;nan
76205;BME280;64986;55.672;37.628;2023-06-10T10:35:20;100230.47;;;34.66;nan
76205;BME280;64986;55.672;37.628;2023-06-10T10:37:48;100218.53;;;35.46;nan
76205;BME280;64986;55.672;37.628;2023-06-10T10:40:16;100199.53;;;34.78;nan
76205;BME280;64986;55.672;37.628;2023-06-10T10:42:42;100213.22;;;34.10;nan
76205;BME280;64986;55.672;37.628;2023-06-10T10:45:09;100217.88;;;35.06;nan
76205;BME280;64986;55.672;37.628;2023-06-10T10:47:36;100207.38;;;35.39;nan
76205;BME280;64986;55.672;37.628;2023-06-10T10:50:13;100218.97;;;36.15;nan
76205;BME280;64986;55.672;37.628;2023-06-10T10:52:52;100215.84;;;36.17;nan
76205;BME280;64986;55.672;37.628;2023-06-10T10:55:19;100223.91;;;32.96;nan
76205;BME280;64986;55.672;37.628;2023-06-10T10:57:56;100215.56;;;31.50;nan
76205;BME280;64986;55.672;37.628;2023-06-10T11:00:45;100222.06;;;31.37;nan
76205;BME280;64986;55.672;37.628;2023-06-10T11:03:15;100223.91;;;30.63;nan
76205;BME280;64986;55.672;37.628;2023-06-10T11:05:47;100223.75;;;30.34;nan
76205;BME280;64986;55.672;37.628;2023-06-10T11:08:15;100234.31;;;29.47;nan
76205;BME280;64986;55.672;37.628;2023-06-10T11:10:50;100234.56;;;29.37;nan
76205;BME280;64986;55.672;37.628;2023-06-10T11:13:19;100232.19;;;29.05;nan
76205;BME280;64986;55.672;37.628;2023-06-10T11:15:47;100214.09;;;31.14;nan
76205;BME280;64986;55.672;37.628;2023-06-10T11:18:24;100233.19;;;30.54;nan
76205;BME280;64986;55.672;37.628;2023-06-10T11:31:26;100220.47;;;35.14;nan
76205;BME280;64986;55.672;37.628;2023-06-10T11:34:03;100224.59;;;34.12;nan
76205;BME280;64986;55.672;37.628;2023-06-10T11:36:30;100224.03;;;32.79;nan
76205;BME280;64986;55.672;37.628;2023-06-10T11:39:01;100228.03;;;31.98;nan
76205;BME280;64986;55.672;37.628;2023-06-10T11:41:29;100239.66;;;31.78;nan
76205;BME280;64986;55.672;37.628;2023-06-10T11:43:56;100237.31;;;34.60;nan
76205;BME280;64986;55.672;37.628;2023-06-10T11:46:23;100250.03;;;36.03;nan
76205;BME280;64986;55.672;37.628;2023-06-10T11:48:56;100240.31;;;38.54;nan
76205;BME280;64986;55.672;37.628;2023-06-10T11:51:25;100236.06;;;38.98;nan
76205;BME280;64986;55.672;37.628;2023-06-10T11:53:50;100226.13;;;39.75;nan
76205;BME280;64986;55.672;37.628;2023-06-10T11:56:20;100230.13;;;40.64;nan
76205;BME280;64986;55.672;37.628;2023-06-10T11:58:52;100231.78;;;39.45;nan
76205;BME280;64986;55.672;37.628;2023-06-10T12:01:22;100220.78;;;35.28;nan
76205;BME280;64986;55.672;37.628;2023-06-10T12:03:55;100229.69;;;31.52;nan
76205;BME280;64986;55.672;37.628;2023-06-10T12:06:21;100228.50;;;29.09;nan
76205;BME280;64986;55.672;37.628;2023-06-10T12:08:46;100230.03;;;27.79;nan
76205;BME280;64986;55.672;37.628;2023-06-10T12:11:12;100237.13;;;27.48;nan
76205;BME280;64986;55.672;37.628;2023-06-10T12:13:45;100227.19;;;27.29;nan
76205;BME280;64986;55.672;37.628;2023-06-10T12:16:13;100245.00;;;26.79;nan
76205;BME280;64986;55.672;37.628;2023-06-10T12:18:39;100241.88;;;26.72;nan
76205;BME280;64986;55.672;37.628;2023-06-10T12:21:16;100239.44;;;27.08;nan
76205;BME280;64986;55.672;37.628;2023-06-10T12:24:00;100237.44;;;27.87;nan
76205;BME280;64986;55.672;37.628;2023-06-10T12:26:43;100232.13;;;27.96;nan
76205;BME280;64986;55.672;37.628;2023-06-10T12:32:03;100239.09;;;29.81;nan
76205;BME280;64986;55.672;37.628;2023-06-10T12:34:36;100239.06;;;29.73;nan
76205;BME280;64986;55.672;37.628;2023-06-10T12:37:04;100228.34;;;32.47;nan
76205;BME280;64986;55.672;37.628;2023-06-10T12:39:33;100225.22;;;35.33;nan
76205;BME280;64986;55.672;37.628;2023-06-10T12:41:59;100229.19;;;35.99;nan
76205;BME280;64986;55.672;37.628;2023-06-10T12:44:33;100216.91;;;39.08;nan
76205;BME280;64986;55.672;37.628;2023-06-10T12:47:00;100217.91;;;36.58;nan
76205;BME280;64986;55.672;37.628;2023-06-10T12:49:26;100211.16;;;35.03;nan
76205;BME280;64986;55.672;37.628;2023-06-10T12:51:52;100219.59;;;34.54;nan
76205;BME280;64986;55.672;37.628;2023-06-10T12:54:18;100206.63;;;34.39;nan
76205;BME280;64986;55.672;37.628;2023-06-10T12:56:44;100211.38;;;32.20;nan
76205;BME280;64986;55.672;37.628;2023-06-10T12:59:09;100218.81;;;29.79;nan
76205;BME280;64986;55.672;37.628;2023-06-10T13:01:37;100224.69;;;28.29;nan
76205;BME280;64986;55.672;37.628;2023-06-10T13:04:05;100226.44;;;30.17;nan
76205;BME280;64986;55.672;37.628;2023-06-10T13:06:31;100226.28;;;32.44;nan
76205;BME280;64986;55.672;37.628;2023-06-10T13:08:58;100216.16;;;34.05;nan
76205;BME280;64986;55.672;37.628;2023-06-10T13:11:24;100226.66;;;33.66;nan
76205;BME280;64986;55.672;37.628;2023-06-10T13:13:51;100235.66;;;33.91;nan
76205;BME280;64986;55.672;37.628;2023-06-10T13:16:16;100226.50;;;33.38;nan
76205;BME280;64986;55.672;37.628;2023-06-10T13:18:42;100221.88;;;32.72;nan